createdAt,value
2023-01-25T00:01:56.233Z,2.92
2023-01-25T00:04:27.000Z,2.70
2023-01-25T00:06:54.559Z,2.80
2023-01-25T00:09:24.644Z,2.75
2023-01-25T00:11:56.492Z,2.71
2023-01-25T00:14:23.570Z,2.66
2023-01-25T00:16:51.105Z,2.79
2023-01-25T00:19:18.597Z,2.83
2023-01-25T00:21:46.093Z,2.88
2023-01-25T00:24:16.752Z,2.62
2023-01-25T00:26:46.714Z,2.46
2023-01-25T00:29:15.632Z,2.44
2023-01-25T00:32:01.792Z,2.51
2023-01-25T00:34:29.848Z,2.42
2023-01-25T00:37:11.330Z,2.65
2023-01-25T00:39:39.253Z,2.60
2023-01-25T00:42:11.005Z,2.55
2023-01-25T00:44:41.632Z,2.23
2023-01-25T00:47:13.162Z,2.56
2023-01-25T00:49:42.269Z,2.43
2023-01-25T00:52:10.620Z,2.38
2023-01-25T00:54:41.006Z,2.54
2023-01-25T00:57:11.137Z,2.47
2023-01-25T00:59:38.558Z,2.07
2023-01-25T01:02:08.101Z,2.42
2023-01-25T01:04:35.085Z,2.53
2023-01-25T01:07:02.569Z,2.37
2023-01-25T01:09:33.078Z,2.17
2023-01-25T01:12:00.031Z,2.49
2023-01-25T01:14:28.831Z,2.47
2023-01-25T01:16:57.234Z,2.67
2023-01-25T01:19:27.773Z,2.64
2023-01-25T01:21:59.616Z,2.50
2023-01-25T01:24:29.923Z,2.57
2023-01-25T01:26:56.919Z,1.97
2023-01-25T01:29:26.276Z,2.20
2023-01-25T01:31:56.335Z,2.51
2023-01-25T01:34:23.581Z,2.90
2023-01-25T01:36:50.806Z,2.66
2023-01-25T01:39:17.871Z,2.46
2023-01-25T01:41:46.127Z,1.90
2023-01-25T01:44:20.580Z,2.14
2023-01-25T01:46:55.298Z,2.33
2023-01-25T01:49:28.358Z,2.56
2023-01-25T01:52:07.237Z,2.32
2023-01-25T01:54:40.644Z,2.16
2023-01-25T01:57:16.637Z,2.30
2023-01-25T02:00:10.675Z,2.28
2023-01-25T02:02:37.717Z,2.58
2023-01-25T02:05:13.287Z,2.45
2023-01-25T02:07:40.851Z,2.78
2023-01-25T02:10:12.607Z,2.84
2023-01-25T02:12:40.919Z,2.47
2023-01-25T02:15:11.128Z,2.18
2023-01-25T02:17:40.325Z,2.46
2023-01-25T02:20:25.294Z,2.70
2023-01-25T02:23:00.859Z,2.58
2023-01-25T02:25:28.322Z,2.47
2023-01-25T02:28:05.572Z,2.60
2023-01-25T02:30:34.436Z,2.54
2023-01-25T02:33:04.721Z,2.51
2023-01-25T02:35:51.450Z,2.63
2023-01-25T02:38:21.360Z,2.77
2023-01-25T02:40:57.934Z,2.66
2023-01-25T02:43:30.087Z,2.74
2023-01-25T02:46:39.125Z,2.59
2023-01-25T02:49:09.194Z,2.67
2023-01-25T02:51:41.597Z,2.63
2023-01-25T02:54:15.809Z,2.53
2023-01-25T02:56:42.981Z,2.43
2023-01-25T02:59:13.316Z,2.50
2023-01-25T03:01:42.923Z,2.87
2023-01-25T03:04:10.410Z,2.78
2023-01-25T03:06:38.523Z,2.75
2023-01-25T03:09:11.163Z,2.64
2023-01-25T03:11:40.673Z,2.66
2023-01-25T03:14:07.785Z,2.53
2023-01-25T03:16:37.443Z,2.33
2023-01-25T03:19:04.657Z,2.08
2023-01-25T03:21:31.722Z,2.10
2023-01-25T03:24:03.037Z,2.21
2023-01-25T03:26:58.253Z,2.44
2023-01-25T03:29:25.436Z,2.40
2023-01-25T03:31:52.457Z,2.72
2023-01-25T03:34:22.070Z,2.43
2023-01-25T03:36:49.139Z,2.66
2023-01-25T03:39:16.407Z,2.71
2023-01-25T03:41:45.662Z,2.20
2023-01-25T03:44:13.028Z,2.73
2023-01-25T03:46:45.654Z,2.51
2023-01-25T03:49:12.856Z,2.26
2023-01-25T03:51:40.010Z,2.34
2023-01-25T03:54:10.267Z,2.30
2023-01-25T03:56:38.508Z,1.96
2023-01-25T03:59:08.121Z,1.97
2023-01-25T04:01:37.626Z,2.25
2023-01-25T04:04:07.742Z,2.12
2023-01-25T04:06:37.891Z,2.31
2023-01-25T04:09:05.323Z,1.92
2023-01-25T04:11:32.271Z,2.07
2023-01-25T04:13:59.419Z,2.26
2023-01-25T04:16:31.432Z,2.13
2023-01-25T04:18:58.822Z,2.26
2023-01-25T04:21:28.153Z,2.18
2023-01-25T04:23:55.301Z,2.40
2023-01-25T04:26:24.668Z,2.03
2023-01-25T04:28:54.132Z,2.14
2023-01-25T04:31:23.822Z,1.97
2023-01-25T04:33:51.474Z,2.09
2023-01-25T04:36:23.571Z,2.06
2023-01-25T04:38:50.484Z,2.15
2023-01-25T04:41:20.025Z,2.38
2023-01-25T04:43:46.955Z,2.41
2023-01-25T04:46:14.013Z,2.31
2023-01-25T04:48:41.069Z,2.34
2023-01-25T04:51:09.536Z,2.08
2023-01-25T04:53:36.607Z,1.96
2023-01-25T04:56:06.395Z,1.84
2023-01-25T04:58:40.383Z,1.89
2023-01-25T05:01:07.738Z,2.07
2023-01-25T05:03:34.767Z,2.02
2023-01-25T05:06:04.111Z,1.96
2023-01-25T05:08:31.205Z,1.70
2023-01-25T05:11:01.264Z,1.79
2023-01-25T05:13:28.164Z,2.11
2023-01-25T05:15:57.587Z,2.17
2023-01-25T05:18:24.525Z,2.15
2023-01-25T05:20:59.240Z,2.45
2023-01-25T05:23:26.085Z,2.16
2023-01-25T05:26:11.768Z,2.28
2023-01-25T05:28:41.246Z,2.40
2023-01-25T05:31:08.367Z,2.26
2023-01-25T05:33:35.250Z,2.26
2023-01-25T05:36:04.699Z,2.41
2023-01-25T05:38:31.629Z,2.35
2023-01-25T05:40:59.692Z,2.15
2023-01-25T05:43:28.805Z,2.19
2023-01-25T05:45:55.856Z,2.20
2023-01-25T05:48:25.166Z,2.40
2023-01-25T05:50:52.183Z,2.68
2023-01-25T05:53:27.038Z,3.06
2023-01-25T05:55:54.332Z,2.64
2023-01-25T05:58:26.419Z,2.35
2023-01-25T06:00:53.442Z,2.71
2023-01-25T06:03:22.652Z,2.56
2023-01-25T06:05:57.939Z,2.49
2023-01-25T06:08:25.129Z,2.19
2023-01-25T06:10:52.226Z,2.63
2023-01-25T06:13:22.281Z,2.50
2023-01-25T06:15:58.563Z,2.87
2023-01-25T06:18:25.663Z,2.92
2023-01-25T06:20:58.540Z,2.98
2023-01-25T06:23:29.127Z,2.78
2023-01-25T06:26:13.993Z,2.46
2023-01-25T06:28:41.384Z,2.39
2023-01-25T06:31:18.148Z,2.44
2023-01-25T06:33:49.905Z,2.56
2023-01-25T06:36:20.104Z,2.45
2023-01-25T06:38:52.071Z,2.72
2023-01-25T06:41:20.478Z,2.20
2023-01-25T06:43:50.445Z,2.59
2023-01-25T06:46:20.500Z,2.84
2023-01-25T06:48:47.926Z,2.55
2023-01-25T06:51:15.733Z,2.54
2023-01-25T06:53:46.047Z,2.72
2023-01-25T06:56:21.929Z,2.41
2023-01-25T06:58:49.477Z,2.50
2023-01-25T07:01:27.575Z,2.54
2023-01-25T07:03:57.650Z,2.64
2023-01-25T07:06:26.755Z,2.84
2023-01-25T07:08:55.990Z,2.98
2023-01-25T07:11:22.861Z,2.78
2023-01-25T07:13:52.159Z,2.75
2023-01-25T07:16:20.532Z,3.03
2023-01-25T07:18:49.982Z,3.08
2023-01-25T07:21:23.051Z,2.96
2023-01-25T07:23:54.053Z,2.79
2023-01-25T07:26:26.081Z,2.79
2023-01-25T07:28:57.057Z,2.92
2023-01-25T07:31:24.427Z,3.16
2023-01-25T07:33:54.692Z,3.12
2023-01-25T07:36:24.822Z,2.56
2023-01-25T07:38:57.779Z,2.47
2023-01-25T07:41:25.969Z,2.79
2023-01-25T07:43:53.304Z,2.65
2023-01-25T07:46:20.847Z,2.62
2023-01-25T07:48:53.051Z,2.56
2023-01-25T07:51:25.107Z,2.68
2023-01-25T07:54:03.780Z,2.82
2023-01-25T07:56:34.000Z,2.90
2023-01-25T07:59:04.704Z,2.90
2023-01-25T08:01:34.544Z,2.86
2023-01-25T08:04:02.641Z,3.09
2023-01-25T08:06:34.544Z,3.11
2023-01-25T08:09:08.767Z,3.14
2023-01-25T08:11:40.249Z,3.31
2023-01-25T08:14:12.618Z,3.36
2023-01-25T08:16:39.721Z,3.32
2023-01-25T08:19:10.266Z,3.65
2023-01-25T08:21:37.851Z,3.67
2023-01-25T08:24:07.653Z,3.56
2023-01-25T08:26:36.528Z,3.52
2023-01-25T08:29:05.169Z,3.45
2023-01-25T08:31:36.462Z,3.50
2023-01-25T08:34:06.924Z,3.41
2023-01-25T08:36:38.844Z,3.31
2023-01-25T08:39:08.098Z,3.05
2023-01-25T08:41:35.954Z,3.32
2023-01-25T08:44:03.201Z,3.27
2023-01-25T08:46:33.243Z,3.07
2023-01-25T08:49:04.132Z,3.46
2023-01-25T08:51:32.894Z,3.63
2023-01-25T08:54:12.146Z,3.62
2023-01-25T08:56:40.762Z,3.72
2023-01-25T08:59:11.435Z,3.62
2023-01-25T09:01:38.781Z,3.56
2023-01-25T09:04:07.939Z,3.61
2023-01-25T09:06:37.302Z,3.15
2023-01-25T09:09:09.341Z,2.82
2023-01-25T09:11:40.355Z,2.93
2023-01-25T09:14:09.311Z,2.81
2023-01-25T09:16:38.486Z,2.73
2023-01-25T09:19:10.641Z,2.68
2023-01-25T09:21:37.609Z,2.78
2023-01-25T09:24:07.236Z,2.71
2023-01-25T09:26:40.023Z,2.67
2023-01-25T09:29:10.897Z,2.80
2023-01-25T09:31:43.841Z,2.78
2023-01-25T09:34:13.388Z,3.06
2023-01-25T09:36:40.528Z,3.19
2023-01-25T09:39:10.161Z,3.06
2023-01-25T09:41:58.439Z,3.29
2023-01-25T09:44:39.506Z,3.38
2023-01-25T09:47:27.962Z,3.65
2023-01-25T09:50:53.322Z,3.23
2023-01-25T09:53:35.847Z,3.07
2023-01-25T09:56:27.942Z,2.95
2023-01-25T09:59:00.678Z,2.64
2023-01-25T10:01:53.582Z,2.77
2023-01-25T10:04:25.302Z,3.08
2023-01-25T10:07:02.141Z,2.90
2023-01-25T10:09:48.023Z,2.48
2023-01-25T10:12:24.322Z,2.75
2023-01-25T10:14:52.616Z,2.72
2023-01-25T10:17:40.643Z,2.47
2023-01-25T10:20:15.647Z,2.58
2023-01-25T10:23:21.827Z,2.69
2023-01-25T10:26:29.887Z,2.28
2023-01-25T10:29:15.419Z,2.51
2023-01-25T10:32:00.144Z,2.74
2023-01-25T10:34:56.382Z,2.87
2023-01-25T10:37:31.502Z,2.83
2023-01-25T10:40:22.612Z,3.05
2023-01-25T10:43:08.119Z,3.00
2023-01-25T10:45:38.710Z,2.82
2023-01-25T10:48:14.186Z,2.64
2023-01-25T10:50:46.792Z,2.84
2023-01-25T10:53:44.161Z,2.40
2023-01-25T10:56:11.129Z,2.70
2023-01-25T10:58:47.544Z,2.76
2023-01-25T11:01:30.622Z,3.34
2023-01-25T11:04:04.271Z,3.32
2023-01-25T11:06:47.468Z,3.47
2023-01-25T11:09:29.380Z,3.66
2023-01-25T11:12:04.097Z,3.70
2023-01-25T11:14:36.314Z,3.78
2023-01-25T11:17:08.465Z,3.69
2023-01-25T11:19:40.789Z,3.91
2023-01-25T11:22:24.203Z,4.01
2023-01-25T11:24:51.141Z,4.13
2023-01-25T11:27:27.152Z,4.05
2023-01-25T11:30:07.980Z,4.34
2023-01-25T11:32:35.723Z,4.34
2023-01-25T11:35:03.040Z,3.88
2023-01-25T11:38:08.681Z,3.78
2023-01-25T11:40:50.864Z,3.75
2023-01-25T11:43:51.879Z,3.96
2023-01-25T11:46:24.777Z,3.93
2023-01-25T11:49:08.310Z,3.98
2023-01-25T11:51:59.066Z,3.65
2023-01-25T11:54:59.258Z,4.04
2023-01-25T11:57:52.186Z,4.06
2023-01-25T12:00:30.470Z,3.97
2023-01-25T12:03:12.383Z,3.95
2023-01-25T12:06:13.454Z,3.96
2023-01-25T12:09:21.024Z,3.92
2023-01-25T12:12:03.979Z,3.65
2023-01-25T12:14:42.789Z,3.35
2023-01-25T12:17:39.257Z,3.36
2023-01-25T12:20:34.997Z,3.12
2023-01-25T12:23:31.380Z,2.85
2023-01-25T12:26:19.434Z,2.61
2023-01-25T12:29:14.617Z,2.61
2023-01-25T12:31:57.570Z,2.98
2023-01-25T12:34:36.669Z,3.20
2023-01-25T12:37:30.431Z,3.46
2023-01-25T12:40:44.466Z,3.55
2023-01-25T12:43:24.780Z,3.72
2023-01-25T12:45:55.812Z,3.68
2023-01-25T12:48:27.411Z,3.93
2023-01-25T12:51:00.498Z,3.68
2023-01-25T12:53:42.629Z,3.77
2023-01-25T12:56:25.955Z,3.83
2023-01-25T12:59:18.921Z,3.43
2023-01-25T13:02:02.469Z,3.66
2023-01-25T13:04:55.550Z,3.75
2023-01-25T13:07:43.395Z,3.76
2023-01-25T13:10:27.175Z,3.78
2023-01-25T13:13:20.750Z,3.21
2023-01-25T13:15:48.504Z,3.06
2023-01-25T13:18:31.144Z,3.12
2023-01-25T13:21:08.239Z,3.40
2023-01-25T13:23:43.762Z,3.31
2023-01-25T13:26:23.877Z,3.44
2023-01-25T13:28:59.659Z,3.59
2023-01-25T13:31:58.909Z,3.65
2023-01-25T13:34:42.344Z,3.40
2023-01-25T13:37:24.539Z,3.32
2023-01-25T13:39:56.927Z,3.36
2023-01-25T13:42:27.277Z,3.36
2023-01-25T13:45:03.816Z,3.49
2023-01-25T13:47:38.061Z,3.07
2023-01-25T13:50:23.888Z,3.03
2023-01-25T13:53:18.839Z,2.59
2023-01-25T13:55:56.015Z,2.24
2023-01-25T13:58:26.888Z,2.63
2023-01-25T14:01:08.616Z,3.09
2023-01-25T14:03:45.018Z,2.70
2023-01-25T14:06:22.443Z,2.73
2023-01-25T14:08:51.412Z,2.60
2023-01-25T14:11:29.639Z,2.20
2023-01-25T14:13:58.280Z,2.67
2023-01-25T14:16:29.910Z,2.87
2023-01-25T14:19:22.378Z,3.16
2023-01-25T14:21:49.312Z,2.70
2023-01-25T14:24:19.316Z,2.26
2023-01-25T14:26:47.489Z,2.70
2023-01-25T14:29:35.424Z,2.98
2023-01-25T14:32:04.418Z,3.28
2023-01-25T14:34:31.578Z,3.09
2023-01-25T14:37:21.443Z,2.90
2023-01-25T14:39:51.142Z,3.08
2023-01-25T14:42:24.154Z,2.82
2023-01-25T14:44:53.697Z,2.67
2023-01-25T14:47:32.900Z,2.81
2023-01-25T14:50:35.811Z,2.58
2023-01-25T14:53:24.294Z,2.62
2023-01-25T14:55:52.014Z,2.74
2023-01-25T14:58:29.072Z,2.87
2023-01-25T15:01:04.106Z,2.92
2023-01-25T15:03:35.015Z,3.11
2023-01-25T15:06:10.025Z,2.91
2023-01-25T15:08:44.781Z,2.96
2023-01-25T15:11:35.343Z,2.87
2023-01-25T15:14:21.558Z,2.95
2023-01-25T15:16:48.682Z,3.04
2023-01-25T15:19:52.370Z,2.28
2023-01-25T15:22:19.385Z,2.30
2023-01-25T15:24:57.371Z,2.26
2023-01-25T15:27:27.810Z,2.16
2023-01-25T15:29:57.742Z,2.09
2023-01-25T15:32:27.186Z,2.11
2023-01-25T15:34:56.586Z,2.01
2023-01-25T15:37:23.587Z,2.25
2023-01-25T15:39:50.617Z,2.28
2023-01-25T15:42:19.686Z,2.38
2023-01-25T15:44:46.604Z,2.50
2023-01-25T15:47:16.476Z,1.91
2023-01-25T15:49:43.424Z,1.99
2023-01-25T15:52:11.124Z,2.05
2023-01-25T15:54:39.500Z,2.33
2023-01-25T15:57:09.040Z,2.36
2023-01-25T15:59:36.515Z,2.60
2023-01-25T16:02:05.962Z,2.67
2023-01-25T16:04:37.860Z,2.81
2023-01-25T16:07:09.936Z,2.74
2023-01-25T16:09:42.219Z,3.06
2023-01-25T16:12:09.679Z,2.91
2023-01-25T16:14:39.268Z,2.82
2023-01-25T16:17:12.129Z,3.14
2023-01-25T16:19:39.125Z,3.08
2023-01-25T16:22:08.552Z,2.97
2023-01-25T16:24:39.252Z,2.66
2023-01-25T16:27:06.513Z,2.67
2023-01-25T16:29:35.974Z,2.66
2023-01-25T16:32:08.020Z,2.57
2023-01-25T16:34:34.953Z,2.45
2023-01-25T16:37:02.026Z,2.50
2023-01-25T16:39:32.195Z,2.65
2023-01-25T16:41:59.171Z,2.34
2023-01-25T16:44:26.287Z,2.34
2023-01-25T16:46:53.328Z,2.55
2023-01-25T16:49:30.407Z,2.40
2023-01-25T16:51:58.478Z,2.61
2023-01-25T16:54:26.675Z,2.52
2023-01-25T16:56:55.057Z,2.50
2023-01-25T16:59:26.202Z,2.67
2023-01-25T17:01:53.225Z,2.94
2023-01-25T17:04:20.396Z,3.25
2023-01-25T17:06:49.856Z,3.13
2023-01-25T17:09:24.060Z,3.31
2023-01-25T17:11:55.261Z,3.11
2023-01-25T17:14:27.172Z,3.15
2023-01-25T17:16:56.930Z,2.61
2023-01-25T17:19:25.051Z,2.61
2023-01-25T17:21:51.971Z,2.50
2023-01-25T17:24:21.636Z,2.23
2023-01-25T17:26:48.897Z,2.22
2023-01-25T17:29:15.920Z,2.30
2023-01-25T17:31:47.822Z,2.32
2023-01-25T17:34:21.938Z,2.56
2023-01-25T17:36:50.335Z,2.82
2023-01-25T17:39:21.160Z,2.86
2023-01-25T17:41:50.742Z,2.74
2023-01-25T17:44:24.521Z,2.76
2023-01-25T17:46:56.446Z,2.78
2023-01-25T17:49:24.880Z,3.22
2023-01-25T17:51:51.868Z,3.20
2023-01-25T17:54:23.863Z,3.09
2023-01-25T17:56:56.343Z,3.14
2023-01-25T17:59:23.590Z,3.09
2023-01-25T18:01:51.057Z,3.03
2023-01-25T18:04:22.678Z,3.07
2023-01-25T18:06:49.576Z,3.03
2023-01-25T18:09:19.002Z,2.40
2023-01-25T18:11:48.210Z,2.46
2023-01-25T18:14:16.870Z,2.56
2023-01-25T18:16:44.713Z,2.63
2023-01-25T18:19:12.039Z,2.87
2023-01-25T18:21:40.677Z,2.87
2023-01-25T18:24:22.927Z,2.85
2023-01-25T18:26:54.032Z,2.99
2023-01-25T18:29:41.078Z,2.77
2023-01-25T18:32:08.162Z,2.81
2023-01-25T18:34:37.550Z,2.75
2023-01-25T18:37:17.763Z,2.87
2023-01-25T18:39:52.167Z,2.94
2023-01-25T18:42:24.519Z,2.90
2023-01-25T18:44:51.716Z,2.86
2023-01-25T18:47:21.791Z,3.15
2023-01-25T18:49:52.656Z,3.08
2023-01-25T18:52:22.210Z,3.04
2023-01-25T18:54:51.711Z,2.52
2023-01-25T18:57:18.948Z,2.47
2023-01-25T18:59:45.975Z,2.75
2023-01-25T19:02:15.143Z,2.66
2023-01-25T19:04:45.708Z,2.59
2023-01-25T19:07:17.197Z,2.70
2023-01-25T19:09:47.940Z,2.91
2023-01-25T19:12:16.847Z,2.74
2023-01-25T19:14:46.051Z,2.59
2023-01-25T19:17:15.764Z,2.54
2023-01-25T19:19:44.162Z,2.42
2023-01-25T19:22:14.444Z,2.56
2023-01-25T19:24:41.404Z,2.68
2023-01-25T19:27:08.259Z,2.66
2023-01-25T19:29:36.830Z,2.68
2023-01-25T19:32:07.673Z,2.70
2023-01-25T19:34:34.711Z,2.68
2023-01-25T19:37:06.969Z,2.73
2023-01-25T19:39:33.996Z,2.66
2023-01-25T19:42:00.939Z,2.74
2023-01-25T19:44:29.199Z,2.63
2023-01-25T19:46:56.163Z,2.59
2023-01-25T19:49:23.215Z,2.55
2023-01-25T19:51:53.289Z,2.47
2023-01-25T19:54:24.112Z,2.53
2023-01-25T19:56:51.470Z,2.67
2023-01-25T19:59:27.559Z,2.82
2023-01-25T20:01:57.541Z,2.93
2023-01-25T20:04:25.200Z,3.08
2023-01-25T20:06:53.198Z,2.97
2023-01-25T20:09:28.056Z,2.91
2023-01-25T20:11:57.360Z,2.79
2023-01-25T20:14:24.747Z,2.89
2023-01-25T20:16:57.079Z,2.89
2023-01-25T20:19:29.015Z,2.82
2023-01-25T20:22:00.336Z,2.75
2023-01-25T20:24:30.647Z,2.77
2023-01-25T20:27:02.820Z,2.86
2023-01-25T20:29:34.470Z,2.68
2023-01-25T20:32:23.090Z,2.89
2023-01-25T20:35:03.653Z,2.94
2023-01-25T20:37:30.605Z,2.72
2023-01-25T20:39:57.693Z,2.36
2023-01-25T20:42:28.058Z,1.85
2023-01-25T20:44:55.133Z,1.81
2023-01-25T20:47:22.221Z,1.46
2023-01-25T20:49:53.091Z,1.05
2023-01-25T20:52:20.543Z,0.98
2023-01-25T20:54:48.669Z,1.49
2023-01-25T20:57:18.968Z,1.13
2023-01-25T20:59:50.377Z,1.03
2023-01-25T21:02:18.163Z,1.25
2023-01-25T21:04:45.316Z,1.58
2023-01-25T21:07:12.980Z,1.69
2023-01-25T21:09:42.812Z,1.77
2023-01-25T21:12:10.202Z,1.73
2023-01-25T21:14:40.059Z,1.92
2023-01-25T21:17:08.502Z,1.52
2023-01-25T21:19:36.415Z,1.55
2023-01-25T21:22:03.767Z,1.71
2023-01-25T21:24:33.311Z,1.80
2023-01-25T21:27:02.722Z,1.82
2023-01-25T21:29:32.182Z,1.99
2023-01-25T21:32:01.388Z,1.78
2023-01-25T21:34:28.407Z,1.96
2023-01-25T21:36:55.265Z,2.11
2023-01-25T21:39:22.287Z,2.05
2023-01-25T21:41:49.220Z,2.10
2023-01-25T21:44:35.244Z,1.97
2023-01-25T21:47:28.808Z,1.93
2023-01-25T21:50:13.135Z,1.97
2023-01-25T21:52:40.278Z,2.07
2023-01-25T21:55:10.861Z,1.29
2023-01-25T21:57:47.050Z,1.19
2023-01-25T22:00:16.152Z,1.25
2023-01-25T22:02:44.080Z,1.07
2023-01-25T22:05:11.041Z,1.20
2023-01-25T22:07:38.055Z,0.74
2023-01-25T22:10:05.761Z,0.52
2023-01-25T22:12:37.438Z,0.69
2023-01-25T22:15:05.067Z,0.91
2023-01-25T22:17:36.676Z,1.16
2023-01-25T22:20:11.666Z,1.28
2023-01-25T22:22:38.720Z,1.12
2023-01-25T22:25:06.592Z,1.31
2023-01-25T22:27:54.923Z,1.35
2023-01-25T22:30:21.949Z,1.50
2023-01-25T22:32:48.894Z,1.60
2023-01-25T22:35:16.130Z,1.64
2023-01-25T22:37:45.570Z,1.39
2023-01-25T22:40:13.439Z,1.13
2023-01-25T22:42:40.434Z,0.78
2023-01-25T22:45:08.199Z,0.67
2023-01-25T22:47:37.521Z,0.85
2023-01-25T22:50:07.483Z,0.98
2023-01-25T22:52:34.442Z,0.77
2023-01-25T22:55:01.543Z,1.01
2023-01-25T22:57:28.803Z,1.10
2023-01-25T22:59:55.954Z,1.20
2023-01-25T23:02:27.413Z,0.95
2023-01-25T23:04:54.598Z,0.86
2023-01-25T23:07:23.792Z,0.86
2023-01-25T23:09:51.594Z,1.05
2023-01-25T23:12:21.302Z,0.98
2023-01-25T23:14:51.495Z,1.14
2023-01-25T23:17:39.929Z,1.15
2023-01-25T23:20:10.120Z,1.07
2023-01-25T23:22:37.702Z,0.91
2023-01-25T23:25:06.190Z,1.18
2023-01-25T23:27:35.633Z,1.00
2023-01-25T23:30:02.904Z,0.79
2023-01-25T23:32:29.808Z,0.86
2023-01-25T23:34:56.953Z,1.01
2023-01-25T23:37:24.037Z,1.03
2023-01-25T23:39:51.613Z,1.13
2023-01-25T23:42:18.978Z,1.13
2023-01-25T23:44:48.342Z,1.34
2023-01-25T23:47:15.266Z,1.30
2023-01-25T23:49:42.387Z,1.18
2023-01-25T23:52:09.339Z,1.09
2023-01-25T23:54:36.372Z,1.16
2023-01-25T23:57:03.501Z,1.22
2023-01-25T23:59:33.144Z,1.32
